Annville, Pennsylvania
Current Conditions -  °F | °C
As of 4:58 PM on Saturday 25 Oct 2014 (Local Time) from KMUI Reporting Station
Broken Clouds Broken Clouds  
Wind Chill: 67°   Ceiling: 7000
Heat Index: 67°   Visibility: 10mi
Dew Point: 47°   Wind: 9mph
Humidity: 48%   Direction: 220°SW
Pressure: 29.7"   Gusts: NA
Location:  40.33°N, 76.51°W
Report Text: KMUI 252058Z AUTO 22008KT 10SM BKN070 20/09 A2970 RMK AO2 SLP059 T01970085 57029 $
Loading
Personal Weather Stations






























Interactive Weather Map
Tropical Storm Tracking
New forecast layout! Learn more

10-Day Weather Forecast

Advertisements
Track Severe Weather on mobile